Time;durP1;ratioP1;P1;durP2;ratioP2;P2;SDS_P1;SDS_P2;PMS_P1;PMS_P2;Temp;Humidity;BMP_temperature;BMP_pressure;BME280_temperature;BME280_humidity;BME280_pressure;Samples;Min_cycle;Max_cycle;Signal;HPM_P1;HPM_P2
2022/09/16 00:00:19;;;;;;;4.67;1.87;;;;;;;12.07;86.57;99254.86;3638538;80;32504;-87
2022/09/16 00:05:20;;;;;;;3.40;1.00;;;;;;;12.02;86.58;99256.11;3596995;80;98607;-88
2022/09/16 00:10:22;;;;;;;4.13;1.00;;;;;;;12.01;86.83;99257.91;3632629;80;29765;-87
2022/09/16 00:15:23;;;;;;;4.63;1.10;;;;;;;11.99;86.85;99267.20;3564561;81;98443;-87
2022/09/16 00:20:24;;;;;;;4.70;1.20;;;;;;;11.97;86.93;99268.19;3565107;82;32506;-87
2022/09/16 00:25:25;;;;;;;4.70;1.40;;;;;;;11.90;87.21;99267.70;3561754;82;98544;-87
2022/09/16 00:30:26;;;;;;;3.83;1.30;;;;;;;11.81;87.40;99272.92;3551457;82;32505;-86
2022/09/16 00:35:26;;;;;;;4.78;1.17;;;;;;;11.78;87.90;99282.00;3553782;82;98647;-85
2022/09/16 00:40:27;;;;;;;4.90;1.50;;;;;;;11.73;87.92;99286.59;3559204;82;28676;-86
2022/09/16 00:45:30;;;;;;;5.63;1.23;;;;;;;11.71;88.61;99279.93;3552123;82;98584;-86
2022/09/16 00:50:39;;;;;;;4.70;1.20;;;;;;;11.69;88.64;99276.23;3543127;82;29622;-86
2022/09/16 00:55:42;;;;;;;4.33;1.37;;;;;;;11.69;88.64;99276.23;3553405;82;99071;-91
2022/09/16 01:00:43;;;;;;;4.70;1.40;;;;;;;11.66;88.92;99274.28;3552779;82;32448;-86
2022/09/16 01:05:45;;;;;;;4.87;1.20;;;;;;;11.65;89.19;99277.45;3556462;82;98629;-87
2022/09/16 01:10:46;;;;;;;3.70;1.10;;;;;;;11.53;89.22;99281.50;3560819;82;30924;-86
2022/09/16 01:16:07;;;;;;;4.40;1.00;;;;;;;11.53;89.22;99281.50;3564004;82;98350;-86
2022/09/16 01:21:23;;;;;;;4.97;1.30;;;;;;;11.47;89.44;99278.22;3562571;82;98347;-86
2022/09/16 01:26:47;;;;;;;3.83;1.42;;;;;;;11.52;89.47;99284.08;3550244;82;32431;-87
2022/09/16 01:32:12;;;;;;;6.62;1.40;;;;;;;11.44;89.57;99283.19;3567894;81;98612;-87
2022/09/16 01:37:55;;;;;;;5.15;2.37;;;;;;;11.44;89.65;99284.56;3557883;82;32583;-88
2022/09/16 01:43:16;;;;;;;8.10;1.35;;;;;;;11.41;89.71;99281.23;3560716;82;98588;-87
2022/09/16 01:48:35;;;;;;;2.92;1.20;;;;;;;11.29;89.94;99274.27;3567891;82;31536;-87
2022/09/16 01:53:48;;;;;;;6.25;1.07;;;;;;;11.27;90.63;99279.99;3566207;82;98616;-87
2022/09/16 01:58:57;;;;;;;4.45;1.15;;;;;;;11.23;90.54;99282.03;3581041;82;32405;-87
2022/09/16 02:04:06;;;;;;;4.05;1.25;;;;;;;11.15;90.77;99289.57;3559261;82;98818;-87
2022/09/16 02:09:12;;;;;;;4.25;1.20;;;;;;;11.11;90.87;99283.30;3562543;82;32920;-88
2022/09/16 02:14:19;;;;;;;;;;;;;;;11.06;91.44;99282.98;3560240;81;98802;-86
2022/09/16 02:19:23;;;;;;;;;;;;;;;11.00;92.45;99283.20;3561302;82;28372;-87
2022/09/16 02:24:27;;;;;;;4.78;1.25;;;;;;;10.97;92.31;99285.41;3564919;82;84961;-87
2022/09/16 02:29:33;;;;;;;3.70;1.20;;;;;;;10.94;91.73;99277.95;3576316;81;32400;-87
2022/09/16 02:34:42;;;;;;;3.75;1.30;;;;;;;10.88;91.62;99288.63;3572010;81;98634;-86
2022/09/16 02:39:48;;;;;;;5.77;1.03;;;;;;;10.86;92.12;99282.73;3571106;81;31297;-86
2022/09/16 02:44:49;;;;;;;4.60;1.70;;;;;;;10.87;92.14;99284.32;3561564;82;98180;-88
2022/09/16 02:49:58;;;;;;;6.93;2.10;;;;;;;10.78;92.86;99287.33;3548789;82;26753;-87
2022/09/16 02:55:11;;;;;;;4.45;1.37;;;;;;;10.79;92.69;99291.67;3570701;82;98450;-87
2022/09/16 03:00:12;;;;;;;3.55;1.27;;;;;;;10.76;92.69;99297.39;3558974;81;33053;-87
2022/09/16 03:05:13;;;;;;;4.27;1.30;;;;;;;10.72;93.57;99286.99;3563517;81;98465;-85
2022/09/16 03:10:14;;;;;;;2.43;1.30;;;;;;;10.63;93.43;99285.89;3610083;81;26352;-88
2022/09/16 03:15:29;;;;;;;3.67;1.20;;;;;;;10.60;94.07;99298.48;3601772;81;98507;-85
2022/09/16 03:21:01;;;;;;;6.00;1.50;;;;;;;10.63;94.11;99302.41;3621136;80;32396;-85
2022/09/16 03:26:16;;;;;;;5.43;1.87;;;;;;;10.54;94.43;99294.61;3620056;80;30968;-87
2022/09/16 03:31:31;;;;;;;9.20;2.55;;;;;;;10.51;94.85;99299.52;3608763;79;98443;-87
2022/09/16 03:36:38;;;;;;;7.45;1.72;;;;;;;10.48;95.27;99300.31;3619682;80;33007;-86
2022/09/16 03:41:39;;;;;;;4.12;1.50;;;;;;;10.34;95.39;99283.13;3619831;80;98766;-89
2022/09/16 03:46:40;;;;;;;3.60;1.35;;;;;;;10.34;95.39;99283.13;3625612;80;33618;-87
2022/09/16 03:51:41;;;;;;;6.70;1.57;;;;;;;10.45;95.66;99298.39;3619562;80;98812;-88
2022/09/16 03:56:42;;;;;;;5.53;1.50;;;;;;;10.48;96.28;99287.17;3625790;80;25789;-88
2022/09/16 04:01:44;;;;;;;4.78;1.90;;;;;;;10.41;96.68;99288.61;3619093;80;98943;-87
2022/09/16 04:06:45;;;;;;;3.13;1.53;;;;;;;10.41;96.71;99289.38;3625169;80;25867;-88
2022/09/16 04:11:46;;;;;;;6.10;1.70;;;;;;;10.38;96.91;99292.15;3535116;82;98785;-87
2022/09/16 04:16:47;;;;;;;4.47;1.50;;;;;;;10.35;97.44;99287.47;3615504;80;26068;-85
2022/09/16 04:21:48;;;;;;;3.72;1.77;;;;;;;10.38;97.45;99288.02;3668361;79;98868;-87
2022/09/16 04:26:49;;;;;;;5.67;2.07;;;;;;;10.36;97.77;99295.91;3682521;79;26240;-87
2022/09/16 04:31:50;;;;;;;6.40;2.10;;;;;;;10.36;97.92;99301.41;3677093;79;98710;-86
2022/09/16 04:36:51;;;;;;;5.05;2.37;;;;;;;10.32;98.14;99297.89;3686082;79;26826;-88
2022/09/16 04:41:51;;;;;;;5.27;2.23;;;;;;;10.30;98.58;99303.78;3681793;79;98986;-87
2022/09/16 04:46:52;;;;;;;7.77;2.17;;;;;;;10.31;98.41;99294.95;3695569;79;33784;-83
2022/09/16 04:51:53;;;;;;;6.20;2.17;;;;;;;10.28;99.74;99291.03;3678559;77;98620;-83
2022/09/16 04:56:54;;;;;;;7.73;2.17;;;;;;;10.28;100.00;99297.91;3697661;79;33210;-87
2022/09/16 05:01:56;;;;;;;6.60;2.10;;;;;;;10.28;99.79;99297.91;3684183;79;98876;-85
2022/09/16 05:06:57;;;;;;;6.83;2.23;;;;;;;10.31;99.99;99307.33;3701369;79;33223;-87
2022/09/16 05:11:58;;;;;;;10.43;2.53;;;;;;;10.31;100.00;99305.95;3676220;79;98205;-88
2022/09/16 05:16:59;;;;;;;6.73;2.20;;;;;;;10.40;100.00;99304.89;3624578;80;33701;-88
2022/09/16 05:22:01;;;;;;;4.63;2.00;;;;;;;10.43;100.00;99311.77;3697344;79;99095;-84
2022/09/16 05:27:02;;;;;;;4.90;2.00;;;;;;;10.46;100.00;99312.33;3640937;78;33631;-87
2022/09/16 05:32:04;;;;;;;7.53;2.40;;;;;;;10.51;100.00;99315.23;3604647;80;98955;-86
2022/09/16 05:37:05;;;;;;;5.73;2.00;;;;;;;10.56;100.00;99312.06;3696343;79;33711;-91
2022/09/16 05:42:06;;;;;;;6.30;1.83;;;;;;;10.62;100.00;99299.44;3673871;79;98641;-89
2022/09/16 05:47:07;;;;;;;7.83;2.20;;;;;;;10.70;100.00;99311.97;3697356;79;33731;-86
2022/09/16 05:52:07;;;;;;;7.77;2.03;;;;;;;10.77;100.00;99309.95;3685093;79;98887;-86
2022/09/16 05:57:08;;;;;;;6.47;2.20;;;;;;;10.85;99.92;99315.58;3694126;79;33744;-89
2022/09/16 06:02:11;;;;;;;4.87;2.00;;;;;;;10.94;99.65;99317.28;3684288;79;98300;-89
2022/09/16 06:07:12;;;;;;;4.75;1.90;;;;;;;11.04;99.39;99322.50;3692419;79;31506;-92
2022/09/16 06:12:14;;;;;;;7.03;2.70;;;;;;;10.95;99.33;99290.55;3678760;79;98606;-88
2022/09/16 06:17:15;;;;;;;12.13;2.60;;;;;;;11.21;99.05;99314.68;3691100;79;31614;-90
2022/09/16 06:22:15;;;;;;;6.50;2.60;;;;;;;11.29;98.82;99314.20;3622727;79;98541;-89
2022/09/16 06:27:16;;;;;;;12.40;3.63;;;;;;;11.39;98.54;99311.17;3628758;80;31622;-94
2022/09/16 06:32:17;;;;;;;9.33;2.70;;;;;;;11.50;98.08;99306.34;3618193;80;98454;-88
2022/09/16 06:37:18;;;;;;;8.73;2.60;;;;;;;11.63;97.91;99310.16;3628197;79;31689;-86
2022/09/16 06:42:19;;;;;;;5.97;2.80;;;;;;;11.73;97.41;99304.51;3620849;79;98319;-90
2022/09/16 06:47:20;;;;;;;11.03;3.00;;;;;;;11.87;96.73;99301.59;3626706;80;32142;-91
2022/09/16 06:52:21;;;;;;;11.95;2.90;;;;;;;11.99;96.17;99292.02;3622510;80;98712;-89
2022/09/16 06:57:22;;;;;;;11.12;2.87;;;;;;;12.07;95.58;99304.50;3627220;80;31636;-90
2022/09/16 07:02:23;;;;;;;9.30;2.98;;;;;;;12.14;95.18;99298.88;3622053;80;98761;-93
2022/09/16 07:07:24;;;;;;;8.63;2.77;;;;;;;12.28;94.50;99309.73;3634470;80;27890;-89
2022/09/16 07:12:25;;;;;;;10.30;3.07;;;;;;;12.38;93.67;99306.06;3612118;80;98740;-93
2022/09/16 07:17:26;;;;;;;8.97;2.50;;;;;;;12.49;93.50;99306.07;3606605;80;26312;-86
2022/09/16 07:22:31;;;;;;;8.50;2.57;;;;;;;12.60;93.05;99315.59;3670609;78;100101;-91
2022/09/16 07:27:32;;;;;;;8.35;2.30;;;;;;;12.67;91.90;99314.89;3636230;78;31737;-90
2022/09/16 07:32:32;;;;;;;8.90;2.10;;;;;;;12.74;91.77;99313.98;3631115;80;98450;-88
2022/09/16 07:37:34;;;;;;;9.70;2.20;;;;;;;12.86;90.81;99310.66;3643149;78;25990;-89
2022/09/16 07:42:35;;;;;;;10.07;2.73;;;;;;;12.99;90.31;99311.05;3620979;78;98585;-86
2022/09/16 07:47:36;;;;;;;6.93;2.07;;;;;;;13.18;89.83;99322.75;3641823;80;26122;-91
2022/09/16 07:52:37;;;;;;;9.23;2.37;;;;;;;13.36;88.81;99324.60;3625193;80;98603;-94
2022/09/16 07:57:38;;;;;;;8.07;2.20;;;;;;;13.50;87.61;99321.59;3607238;80;25819;-88
2022/09/16 08:02:38;;;;;;;6.87;1.57;;;;;;;13.67;87.83;99323.83;3580926;81;98373;-88
2022/09/16 08:07:39;;;;;;;7.30;1.90;;;;;;;13.90;86.43;99325.19;3698039;79;35432;-90
2022/09/16 08:12:40;;;;;;;7.43;1.60;;;;;;;14.14;86.02;99316.97;3638418;78;98594;-89
2022/09/16 08:17:41;;;;;;;5.55;1.55;;;;;;;14.37;84.07;99321.05;3643816;78;35365;-87
2022/09/16 08:22:42;;;;;;;8.57;1.80;;;;;;;14.56;83.33;99320.23;3599197;78;98815;-89
2022/09/16 08:27:43;;;;;;;7.63;1.90;;;;;;;14.74;81.88;99313.08;3523908;82;32070;-90
2022/09/16 08:32:44;;;;;;;7.03;2.23;;;;;;;14.95;79.07;99310.41;3524501;82;98775;-91
2022/09/16 08:37:45;;;;;;;3.50;1.20;;;;;;;15.07;79.97;99309.70;3550517;82;31055;-90
2022/09/16 08:43:19;;;;;;;7.25;1.62;;;;;;;15.26;79.14;99319.30;3580526;81;99150;-91
2022/09/16 08:48:47;;;;;;;4.92;1.35;;;;;;;15.47;78.86;99314.63;3595797;81;34841;-86
2022/09/16 08:54:05;;;;;;;7.30;1.70;;;;;;;15.88;77.42;99311.92;3523291;82;98398;-89
2022/09/16 08:59:19;;;;;;;7.72;1.60;;;;;;;16.45;76.28;99317.40;3599848;81;34838;-87
2022/09/16 09:04:17;;;;;;;7.58;1.40;;;;;;;16.84;71.51;99328.08;3577780;81;98641;-89
2022/09/16 09:09:45;;;;;;;7.12;1.60;;;;;;;16.90;71.87;99315.17;3587431;81;33651;-88
2022/09/16 09:15:10;;;;;;;8.30;1.57;;;;;;;16.98;69.52;99307.39;3586636;81;98530;-89
2022/09/16 09:20:48;;;;;;;6.17;1.93;;;;;;;17.28;69.96;99301.23;3594742;80;25964;-89
2022/09/16 09:25:59;;;;;;;9.53;1.57;;;;;;;17.37;69.19;99303.48;3608143;79;98542;-87
2022/09/16 09:31:32;;;;;;;7.97;1.30;;;;;;;17.54;67.15;99295.80;3546942;81;34872;-94
2022/09/16 09:37:03;;;;;;;9.75;1.52;;;;;;;17.45;67.86;99304.05;3681599;79;34885;-93
2022/09/16 09:42:20;;;;;;;7.95;1.25;;;;;;;17.41;65.94;99306.16;3618860;79;98757;-91
2022/09/16 09:47:52;;;;;;;5.70;1.25;;;;;;;17.38;66.53;99301.48;3688406;79;35108;-92
2022/09/16 09:53:19;;;;;;;7.15;1.50;;;;;;;17.70;67.40;99288.03;3678676;79;98802;-89
2022/09/16 09:58:49;;;;;;;3.05;1.00;;;;;;;18.16;66.83;99284.32;3687847;79;36171;-87
2022/09/16 10:03:53;;;;;;;8.15;1.17;;;;;;;18.06;62.24;99293.88;3676491;79;98646;-90
2022/09/16 10:08:57;;;;;;;6.00;1.15;;;;;;;18.25;62.94;99282.98;3692899;79;35701;-92
2022/09/16 10:14:01;;;;;;;5.47;1.10;;;;;;;18.15;61.82;99288.97;3611509;79;98565;-88
2022/09/16 10:19:18;;;;;;;3.75;1.00;;;;;;;18.01;61.00;99290.88;3678534;79;34866;-91
2022/09/16 10:24:31;;;;;;;5.60;0.95;;;;;;;17.90;61.27;99286.32;3670872;79;98736;-90
2022/09/16 10:29:32;;;;;;;2.45;0.60;;;;;;;17.96;60.26;99281.12;3680266;79;34790;-87
2022/09/16 10:34:40;;;;;;;4.50;1.55;;;;;;;17.89;60.75;99294.52;3667130;79;98213;-87
2022/09/16 10:39:54;;;;;;;5.37;1.25;;;;;;;17.75;60.49;99301.37;3659745;79;35243;-87
2022/09/16 10:45:05;;;;;;;5.58;1.15;;;;;;;17.61;60.33;99304.64;3668320;79;98150;-88
2022/09/16 10:50:07;;;;;;;6.40;1.10;;;;;;;17.70;60.71;99301.95;3693351;79;35398;-89
2022/09/16 10:55:28;;;;;;;3.90;0.98;;;;;;;17.68;59.95;99298.84;3672469;79;98330;-89
2022/09/16 11:00:34;;;;;;;6.45;0.90;;;;;;;17.80;60.61;99293.05;3687145;79;34849;-87
2022/09/16 11:06:07;;;;;;;3.00;0.85;;;;;;;17.87;60.66;99296.35;3686852;79;98650;-88
2022/09/16 11:11:43;;;;;;;4.00;0.97;;;;;;;17.88;61.09;99292.97;3610181;80;98824;-88
2022/09/16 11:16:53;;;;;;;3.27;1.00;;;;;;;17.76;60.04;99295.20;3690626;79;25932;-87
2022/09/16 11:22:08;;;;;;;3.62;1.00;;;;;;;17.85;60.55;99286.90;3693054;79;98416;-85
2022/09/16 11:27:20;;;;;;;7.77;1.27;;;;;;;18.19;59.46;99286.81;3679114;79;25780;-84
2022/09/16 11:32:55;;;;;;;4.00;1.30;;;;;;;18.62;58.06;99275.61;3675655;79;98752;-84
2022/09/16 11:38:18;;;;;;;3.85;0.80;;;;;;;18.64;57.79;99280.12;3697941;78;34774;-86
2022/09/16 11:43:57;;;;;;;5.70;1.00;;;;;;;18.58;57.31;99276.39;3631536;79;98662;-86
2022/09/16 11:49:22;;;;;;;5.65;0.95;;;;;;;18.58;58.68;99277.14;3577556;81;35339;-87
2022/09/16 11:54:56;;;;;;;3.25;0.80;;;;;;;18.51;58.16;99258.53;3569918;81;98807;-86
2022/09/16 12:00:09;;;;;;;4.28;1.00;;;;;;;18.60;57.79;99267.73;3628308;80;35457;-86
2022/09/16 12:05:33;;;;;;;5.67;1.02;;;;;;;18.62;57.51;99275.00;3592173;80;98273;-84
2022/09/16 12:10:55;;;;;;;3.77;0.90;;;;;;;18.78;58.01;99262.81;3681772;79;36041;-85
2022/09/16 12:16:07;;;;;;;2.22;0.88;;;;;;;18.75;57.72;99263.75;3613972;79;98023;-87
2022/09/16 12:21:16;;;;;;;7.12;1.10;;;;;;;18.37;56.91;99266.07;3551942;81;98395;-96
2022/09/16 12:26:29;;;;;;;6.50;1.00;;;;;;;18.01;62.03;99272.78;3519878;82;35382;-89
2022/09/16 12:31:52;;;;;;;4.00;1.10;;;;;;;17.44;63.99;99253.82;3529222;82;98654;-88
2022/09/16 12:37:11;;;;;;;3.90;1.25;;;;;;;17.15;64.94;99249.03;3542647;82;36090;-85
2022/09/16 12:42:45;;;;;;;7.25;1.47;;;;;;;16.98;66.75;99255.97;3542025;82;98728;-95
2022/09/16 12:48:16;;;;;;;3.12;0.82;;;;;;;16.42;67.76;99286.36;3585078;81;34875;-88
2022/09/16 12:53:48;;;;;;;5.15;0.95;;;;;;;15.80;68.28;99249.52;3574583;79;99038;-88
2022/09/16 12:59:42;;;;;;;6.22;1.50;;;;;;;15.72;71.09;99242.62;3588800;81;35492;-90
2022/09/16 13:04:51;;;;;;;6.08;1.02;;;;;;;15.68;72.99;99235.02;3580453;79;98643;-95
2022/09/16 13:10:17;;;;;;;3.75;0.90;;;;;;;15.66;74.04;99231.12;3593892;80;34771;-88
2022/09/16 13:15:26;;;;;;;1.95;1.00;;;;;;;15.60;73.49;99226.70;3583676;80;98548;-86
2022/09/16 13:20:32;;;;;;;3.42;0.80;;;;;;;15.55;73.64;99216.78;3579328;81;36124;-88
2022/09/16 13:26:04;;;;;;;4.00;1.00;;;;;;;15.45;73.55;99219.23;3613406;79;98441;-89
2022/09/16 13:31:20;;;;;;;3.70;1.05;;;;;;;15.44;74.36;99209.36;3549366;80;98903;-90
2022/09/16 13:36:27;;;;;;;3.22;1.02;;;;;;;15.33;73.49;99213.83;3620622;80;34924;-92
2022/09/16 13:41:44;;;;;;;3.12;0.88;;;;;;;15.30;73.74;99210.50;3623834;80;98581;-90
2022/09/16 13:46:45;;;;;;;4.60;1.10;;;;;;;15.24;72.80;99210.87;3632597;80;34873;-89
2022/09/16 13:51:49;;;;;;;3.35;1.07;;;;;;;15.18;73.86;99203.52;3618595;79;98978;-91
2022/09/16 13:57:17;;;;;;;3.45;1.05;;;;;;;15.08;72.60;99203.19;3636591;80;34936;-87
2022/09/16 14:02:28;;;;;;;3.95;0.90;;;;;;;15.00;73.92;99209.52;3622123;79;98934;-88
2022/09/16 14:07:43;;;;;;;7.12;1.27;;;;;;;15.05;73.03;99215.92;3661508;79;35411;-87
2022/09/16 14:13:12;;;;;;;2.58;0.80;;;;;;;15.06;68.85;99208.39;3673981;79;98654;-89
2022/09/16 14:18:17;;;;;;;3.55;0.98;;;;;;;15.05;68.43;99206.84;3697095;78;34877;-86
2022/09/16 14:23:19;;;;;;;3.23;0.80;;;;;;;15.02;69.05;99209.88;3687547;78;98837;-85
2022/09/16 14:28:27;;;;;;;6.80;0.80;;;;;;;15.05;68.66;99207.61;3684774;78;34757;-86
2022/09/16 14:33:39;;;;;;;3.10;0.93;;;;;;;15.07;67.13;99201.05;3567338;81;98587;-85
2022/09/16 14:38:52;;;;;;;20.48;2.80;;;;;;;15.12;67.49;99196.95;3633722;80;35381;-86
2022/09/16 14:43:55;;;;;;;3.15;0.88;;;;;;;15.16;65.70;99203.19;3566507;81;98409;-83
2022/09/16 14:48:56;;;;;;;5.75;1.20;;;;;;;15.17;66.29;99200.58;3603619;80;35024;-88
2022/09/16 14:53:59;;;;;;;3.60;1.13;;;;;;;15.12;65.54;99196.35;3612240;80;98493;-85
2022/09/16 14:59:00;;;;;;;6.58;1.52;;;;;;;15.06;66.37;99195.92;3695093;79;34825;-85
2022/09/16 15:04:08;;;;;;;7.70;2.37;;;;;;;15.03;66.32;99191.25;3681033;79;98772;-84
2022/09/16 15:09:18;;;;;;;7.03;1.50;;;;;;;14.94;66.55;99190.48;3694834;79;34832;-82
2022/09/16 15:14:19;;;;;;;5.20;1.10;;;;;;;14.92;67.15;99194.31;3688092;79;98606;-84
2022/09/16 15:19:28;;;;;;;7.40;1.70;;;;;;;14.93;67.07;99195.86;3643065;80;34921;-85
2022/09/16 15:24:32;;;;;;;5.97;2.02;;;;;;;14.92;66.75;99193.52;3537513;81;98416;-85
2022/09/16 15:29:37;;;;;;;8.15;1.40;;;;;;;14.91;67.04;99184.45;3549742;82;35087;-84
2022/09/16 15:34:38;;;;;;;7.08;1.50;;;;;;;14.92;67.17;99181.05;3533787;82;98244;-85
2022/09/16 15:39:39;;;;;;;3.95;1.50;;;;;;;14.92;67.59;99180.45;3579579;79;34811;-85
2022/09/16 15:44:49;;;;;;;5.53;1.17;;;;;;;14.94;67.87;99173.86;3584391;80;98352;-88
2022/09/16 15:50:10;;;;;;;5.20;1.12;;;;;;;14.96;67.63;99172.05;3591785;81;34753;-85
2022/09/16 15:55:21;;;;;;;4.45;1.15;;;;;;;14.94;67.12;99169.70;3545992;82;98373;-86
2022/09/16 16:00:26;;;;;;;4.65;1.17;;;;;;;14.93;67.31;99175.70;3586611;81;34867;-86
2022/09/16 16:05:30;;;;;;;5.53;1.30;;;;;;;14.89;67.60;99170.23;3581497;81;98459;-87
2022/09/16 16:10:35;;;;;;;6.17;1.80;;;;;;;14.86;67.64;99175.28;3591471;81;35057;-84
2022/09/16 16:15:38;;;;;;;7.55;3.05;;;;;;;14.86;68.08;99170.33;3523028;82;98213;-85
2022/09/16 16:20:40;;;;;;;4.72;1.62;;;;;;;14.81;67.97;99166.11;3556615;82;34875;-85
2022/09/16 16:25:43;;;;;;;4.50;1.60;;;;;;;14.79;68.22;99170.52;3614632;79;98581;-85
2022/09/16 16:30:50;;;;;;;6.35;1.90;;;;;;;14.74;68.46;99164.13;3622072;79;35437;-85
2022/09/16 16:35:50;;;;;;;6.50;1.90;;;;;;;14.67;68.75;99156.77;3599979;80;98673;-87
2022/09/16 16:40:54;;;;;;;3.30;1.30;;;;;;;14.60;68.99;99164.50;3629084;79;26162;-86
2022/09/16 16:46:00;;;;;;;3.30;1.40;;;;;;;14.53;69.64;99165.45;3615744;80;98421;-86
2022/09/16 16:51:06;;;;;;;4.92;1.77;;;;;;;14.42;70.19;99162.76;3618684;80;25926;-88
2022/09/16 16:56:11;;;;;;;3.37;1.32;;;;;;;14.29;71.30;99161.91;3617276;80;34758;-86
2022/09/16 17:01:19;;;;;;;4.47;1.47;;;;;;;14.19;71.49;99162.34;3620532;79;106004;-85
2022/09/16 17:06:28;;;;;;;4.78;1.57;;;;;;;14.03;72.16;99156.75;3623274;80;34836;-87
2022/09/16 17:11:30;;;;;;;9.15;2.15;;;;;;;14.02;72.33;99171.77;3606279;79;98736;-86
2022/09/16 17:16:33;;;;;;;6.55;2.87;;;;;;;13.88;72.21;99180.41;3642213;79;34795;-85
2022/09/16 17:21:35;;;;;;;5.65;2.22;;;;;;;13.79;72.52;99176.67;3616514;79;98324;-86
2022/09/16 17:26:41;;;;;;;4.75;1.75;;;;;;;13.72;72.69;99182.33;3624312;80;34668;-86
2022/09/16 17:31:43;;;;;;;8.03;2.22;;;;;;;13.63;72.75;99186.30;3621167;80;98422;-86
2022/09/16 17:36:46;;;;;;;5.28;1.70;;;;;;;13.55;73.11;99180.72;3619223;80;35097;-84
2022/09/16 17:41:55;;;;;;;6.87;2.15;;;;;;;13.45;73.21;99182.51;3543536;82;98671;-86
2022/09/16 17:46:55;;;;;;;5.33;2.00;;;;;;;13.36;73.45;99181.52;3619900;80;34837;-85
2022/09/16 17:51:57;;;;;;;5.87;2.17;;;;;;;13.27;73.90;99187.62;3611815;80;98418;-86
2022/09/16 17:56:58;;;;;;;6.40;2.33;;;;;;;13.21;74.06;99184.38;3606393;80;33020;-85
2022/09/16 18:02:08;;;;;;;8.80;2.73;;;;;;;13.14;74.37;99177.63;3618063;80;98721;-87
2022/09/16 18:07:10;;;;;;;8.13;3.15;;;;;;;13.10;74.75;99184.59;3585714;80;35377;-84
2022/09/16 18:12:11;;;;;;;9.13;2.90;;;;;;;13.06;75.03;99190.78;3590674;79;98544;-86
2022/09/16 18:17:15;;;;;;;8.17;2.97;;;;;;;13.02;75.13;99194.82;3632968;80;31991;-87
2022/09/16 18:22:15;;;;;;;6.83;2.35;;;;;;;12.99;75.23;99197.83;3617761;80;98422;-85
2022/09/16 18:27:16;;;;;;;12.00;3.10;;;;;;;12.97;75.08;99198.07;3591206;81;32963;-83
2022/09/16 18:32:17;;;;;;;5.50;2.37;;;;;;;12.95;74.82;99189.38;3595058;79;98628;-86
2022/09/16 18:37:18;;;;;;;7.77;2.63;;;;;;;12.93;75.00;99198.70;3605662;79;27172;-86
2022/09/16 18:42:20;;;;;;;8.50;3.50;;;;;;;12.91;75.03;99190.06;3598550;79;98680;-85
2022/09/16 18:47:21;;;;;;;12.33;4.73;;;;;;;12.90;75.50;99185.13;3599923;79;27787;-86
2022/09/16 18:52:26;;;;;;;11.37;4.70;;;;;;;12.89;76.16;99192.45;3583811;80;98843;-87
2022/09/16 18:57:27;;;;;;;7.62;3.27;;;;;;;12.89;76.55;99189.09;3571485;81;34993;-86
2022/09/16 19:02:28;;;;;;;9.70;3.47;;;;;;;12.90;76.87;99198.14;3544137;81;98646;-86
2022/09/16 19:07:32;;;;;;;7.40;3.17;;;;;;;12.89;77.42;99188.30;3594241;79;29072;-84
2022/09/16 19:12:33;;;;;;;13.43;4.50;;;;;;;12.89;77.83;99186.34;3592192;81;98669;-86
2022/09/16 19:17:34;;;;;;;9.18;3.60;;;;;;;12.87;79.08;99185.20;3539569;82;34995;-86
2022/09/16 19:22:36;;;;;;;9.57;3.40;;;;;;;12.87;79.08;99185.20;3568778;81;98621;-86
2022/09/16 19:27:38;;;;;;;7.65;3.33;;;;;;;12.85;79.48;99188.96;3581854;81;34866;-86
2022/09/16 19:32:39;;;;;;;8.60;3.23;;;;;;;12.81;80.14;99188.27;3625219;79;98915;-87
2022/09/16 19:37:40;;;;;;;6.83;3.10;;;;;;;12.78;80.38;99190.48;3637728;79;31308;-84
2022/09/16 19:42:41;;;;;;;9.47;3.27;;;;;;;12.74;80.56;99189.16;3633113;79;98819;-83
2022/09/16 19:47:43;;;;;;;13.90;4.90;;;;;;;12.70;80.96;99193.95;3612291;78;31298;-84
2022/09/16 19:52:44;;;;;;;12.57;4.97;;;;;;;12.64;81.44;99190.12;3619526;78;98967;-85
2022/09/16 19:57:46;;;;;;;9.28;3.98;;;;;;;12.59;81.93;99181.55;3697268;78;31005;-84
2022/09/16 20:02:47;;;;;;;12.23;3.00;;;;;;;12.51;82.41;99188.38;3632127;80;98613;-86
2022/09/16 20:07:48;;;;;;;10.50;3.73;;;;;;;12.43;82.83;99193.23;3607127;81;30351;-84
2022/09/16 20:12:52;;;;;;;6.93;3.10;;;;;;;12.34;82.97;99186.69;3599298;81;98543;-84
2022/09/16 20:17:52;;;;;;;7.72;3.50;;;;;;;12.27;83.29;99189.56;3570971;82;34813;-84
2022/09/16 20:22:53;;;;;;;7.20;3.40;;;;;;;12.18;83.66;99178.27;3565788;81;98769;-84
2022/09/16 20:27:53;;;;;;;7.37;2.97;;;;;;;12.08;83.53;99177.23;3571162;81;26151;-84
2022/09/16 20:32:55;;;;;;;5.47;2.90;;;;;;;12.02;83.74;99183.63;3567056;81;98528;-84
2022/09/16 20:37:56;;;;;;;10.03;3.20;;;;;;;11.93;83.69;99183.39;3567335;81;26138;-83
2022/09/16 20:42:57;;;;;;;9.87;4.07;;;;;;;11.86;84.34;99186.22;3632208;80;98987;-82
2022/09/16 20:47:58;;;;;;;8.70;3.00;;;;;;;11.78;84.04;99188.91;3639513;80;32698;-85
2022/09/16 20:52:59;;;;;;;7.50;3.33;;;;;;;11.70;83.96;99195.11;3682570;79;98689;-84
2022/09/16 20:58:00;;;;;;;9.37;2.80;;;;;;;11.63;84.03;99187.53;3693216;79;32881;-83
2022/09/16 21:03:01;;;;;;;5.75;2.72;;;;;;;11.56;84.43;99188.36;3689362;79;98679;-85
2022/09/16 21:08:02;;;;;;;8.93;2.70;;;;;;;11.52;83.81;99193.73;3641825;80;32775;-86
2022/09/16 21:13:05;;;;;;;8.68;2.60;;;;;;;11.44;83.64;99193.05;3609042;80;99189;-83
2022/09/16 21:18:06;;;;;;;7.37;2.55;;;;;;;11.40;83.60;99189.54;3688646;79;32545;-84
2022/09/16 21:23:07;;;;;;;7.43;2.43;;;;;;;11.33;83.47;99189.63;3686377;79;98732;-84
2022/09/16 21:28:07;;;;;;;5.93;2.33;;;;;;;11.29;83.44;99190.88;3697769;79;26485;-84
2022/09/16 21:33:08;;;;;;;6.23;2.40;;;;;;;11.26;83.54;99191.69;3633345;80;98710;-85
2022/09/16 21:38:09;;;;;;;7.37;2.40;;;;;;;11.20;83.44;99191.95;3648644;78;26476;-84
2022/09/16 21:43:10;;;;;;;5.43;2.00;;;;;;;11.14;83.46;99188.09;3654162;78;98330;-85
2022/09/16 21:48:14;;;;;;;7.50;2.20;;;;;;;11.10;83.44;99188.72;3657599;78;26379;-85
2022/09/16 21:53:14;;;;;;;6.03;2.20;;;;;;;11.06;83.25;99192.13;3583432;81;98687;-84
2022/09/16 21:58:15;;;;;;;9.67;2.63;;;;;;;11.01;82.93;99193.95;3615464;80;25814;-83
2022/09/16 22:03:17;;;;;;;4.67;1.20;;;;;;;10.94;82.78;99194.00;3630077;80;98647;-85
2022/09/16 22:08:18;;;;;;;7.70;1.93;;;;;;;10.94;82.78;99194.00;3574477;81;25863;-84
2022/09/16 22:13:19;;;;;;;11.43;2.83;;;;;;;10.91;82.04;99192.84;3630988;79;98665;-84
2022/09/16 22:18:19;;;;;;;6.63;2.13;;;;;;;10.87;81.96;99187.99;3640153;80;25774;-83
2022/09/16 22:23:20;;;;;;;6.70;2.10;;;;;;;10.86;82.01;99171.88;3633351;79;98308;-83
2022/09/16 22:28:21;;;;;;;4.62;1.72;;;;;;;10.84;81.64;99183.29;3646633;78;25796;-83
2022/09/16 22:33:22;;;;;;;6.63;1.53;;;;;;;10.80;81.87;99182.53;3611374;80;98571;-84
2022/09/16 22:38:23;;;;;;;6.00;1.83;;;;;;;10.78;81.47;99180.80;3685269;79;33237;-84
2022/09/16 22:43:24;;;;;;;9.10;2.53;;;;;;;10.76;81.56;99176.89;3679948;79;98799;-84
2022/09/16 22:48:25;;;;;;;6.80;1.60;;;;;;;10.73;81.59;99180.44;3694785;79;33226;-84
2022/09/16 22:53:28;;;;;;;3.20;1.30;;;;;;;10.68;81.67;99174.03;3683668;79;98605;-84
2022/09/16 22:58:30;;;;;;;5.40;1.70;;;;;;;10.65;81.86;99170.70;3693711;79;33268;-84
2022/09/16 23:03:32;;;;;;;6.93;1.50;;;;;;;10.59;81.87;99168.20;3569493;81;98405;-83
2022/09/16 23:08:36;;;;;;;8.60;2.10;;;;;;;10.54;81.95;99164.52;3634128;80;26038;-84
2022/09/16 23:13:49;;;;;;;4.57;1.57;;;;;;;10.47;82.15;99159.09;3632942;79;98551;-84
2022/09/16 23:18:45;;;;;;;7.73;2.23;;;;;;;10.41;82.65;99160.72;3646923;80;25972;-84
2022/09/16 23:23:50;;;;;;;5.53;1.77;;;;;;;10.35;82.81;99153.48;3632791;80;98668;-84
2022/09/16 23:28:54;;;;;;;8.80;1.97;;;;;;;10.32;83.11;99146.64;3602301;80;26072;-85
2022/09/16 23:33:56;;;;;;;6.97;2.10;;;;;;;10.27;83.43;99145.13;3545263;82;98394;-84
2022/09/16 23:38:57;;;;;;;8.68;2.47;;;;;;;10.23;83.86;99144.36;3620392;80;26329;-85
2022/09/16 23:43:58;;;;;;;4.00;1.70;;;;;;;10.15;84.41;99146.20;3614105;80;98486;-84
2022/09/16 23:49:00;;;;;;;6.12;1.92;;;;;;;10.10;84.64;99130.13;3619513;80;33161;-86
2022/09/16 23:54:00;;;;;;;6.53;1.83;;;;;;;10.07;84.82;99131.72;3613990;80;98309;-85
2022/09/16 23:59:01;;;;;;;6.77;2.50;;;;;;;10.04;85.05;99122.89;3620935;80;33254;-83
